sensor_id;sensor_type;location;lat;lon;timestamp;P1;durP1;ratioP1;P2;durP2;ratioP2
51467;SDS011;37545;45.302;-122.946;2022-09-01T00:00:12;20.15;;;14.93;;
51467;SDS011;37545;45.302;-122.946;2022-09-01T00:02:43;24.58;;;16.20;;
51467;SDS011;37545;45.302;-122.946;2022-09-01T00:05:14;25.75;;;18.08;;
51467;SDS011;37545;45.302;-122.946;2022-09-01T00:07:42;34.42;;;20.40;;
51467;SDS011;37545;45.302;-122.946;2022-09-01T00:10:11;30.00;;;18.70;;
51467;SDS011;37545;45.302;-122.946;2022-09-01T00:12:39;25.50;;;18.92;;
51467;SDS011;37545;45.302;-122.946;2022-09-01T00:15:10;23.95;;;17.90;;
51467;SDS011;37545;45.302;-122.946;2022-09-01T00:17:39;23.85;;;17.70;;
51467;SDS011;37545;45.302;-122.946;2022-09-01T00:20:08;23.70;;;17.40;;
51467;SDS011;37545;45.302;-122.946;2022-09-01T00:22:39;26.63;;;19.23;;
51467;SDS011;37545;45.302;-122.946;2022-09-01T00:25:08;23.33;;;18.80;;
51467;SDS011;37545;45.302;-122.946;2022-09-01T00:27:36;23.20;;;18.45;;
51467;SDS011;37545;45.302;-122.946;2022-09-01T00:30:05;28.02;;;18.42;;
51467;SDS011;37545;45.302;-122.946;2022-09-01T00:32:34;23.35;;;17.13;;
51467;SDS011;37545;45.302;-122.946;2022-09-01T00:35:03;22.67;;;17.05;;
51467;SDS011;37545;45.302;-122.946;2022-09-01T00:37:33;19.83;;;15.18;;
51467;SDS011;37545;45.302;-122.946;2022-09-01T00:40:04;25.23;;;16.13;;
51467;SDS011;37545;45.302;-122.946;2022-09-01T00:42:34;22.83;;;16.35;;
51467;SDS011;37545;45.302;-122.946;2022-09-01T00:45:03;21.80;;;15.82;;
51467;SDS011;37545;45.302;-122.946;2022-09-01T00:47:32;21.55;;;15.30;;
51467;SDS011;37545;45.302;-122.946;2022-09-01T00:50:06;20.80;;;15.93;;
51467;SDS011;37545;45.302;-122.946;2022-09-01T00:52:39;23.40;;;16.50;;
51467;SDS011;37545;45.302;-122.946;2022-09-01T00:55:13;23.40;;;16.35;;
51467;SDS011;37545;45.302;-122.946;2022-09-01T00:57:44;21.17;;;13.30;;
51467;SDS011;37545;45.302;-122.946;2022-09-01T01:00:14;19.02;;;11.95;;
51467;SDS011;37545;45.302;-122.946;2022-09-01T01:02:44;17.50;;;11.35;;
51467;SDS011;37545;45.302;-122.946;2022-09-01T01:05:18;15.32;;;10.25;;
51467;SDS011;37545;45.302;-122.946;2022-09-01T01:07:48;14.70;;;9.00;;
51467;SDS011;37545;45.302;-122.946;2022-09-01T01:10:19;11.32;;;8.10;;
51467;SDS011;37545;45.302;-122.946;2022-09-01T01:12:49;11.38;;;7.90;;
51467;SDS011;37545;45.302;-122.946;2022-09-01T01:15:19;11.30;;;7.35;;
51467;SDS011;37545;45.302;-122.946;2022-09-01T01:17:47;15.80;;;7.25;;
51467;SDS011;37545;45.302;-122.946;2022-09-01T01:20:16;12.27;;;7.35;;
51467;SDS011;37545;45.302;-122.946;2022-09-01T01:23:05;12.80;;;7.60;;
51467;SDS011;37545;45.302;-122.946;2022-09-01T01:25:46;16.88;;;8.02;;
51467;SDS011;37545;45.302;-122.946;2022-09-01T01:28:18;11.88;;;7.32;;
51467;SDS011;37545;45.302;-122.946;2022-09-01T01:30:52;14.75;;;8.10;;
51467;SDS011;37545;45.302;-122.946;2022-09-01T01:33:23;11.73;;;7.72;;
51467;SDS011;37545;45.302;-122.946;2022-09-01T01:35:53;13.63;;;8.20;;
51467;SDS011;37545;45.302;-122.946;2022-09-01T01:38:22;15.20;;;8.30;;
51467;SDS011;37545;45.302;-122.946;2022-09-01T01:40:53;15.82;;;7.63;;
51467;SDS011;37545;45.302;-122.946;2022-09-01T01:43:22;14.48;;;8.15;;
51467;SDS011;37545;45.302;-122.946;2022-09-01T01:45:53;16.60;;;8.45;;
51467;SDS011;37545;45.302;-122.946;2022-09-01T01:48:23;13.63;;;8.20;;
51467;SDS011;37545;45.302;-122.946;2022-09-01T01:50:53;11.23;;;7.88;;
51467;SDS011;37545;45.302;-122.946;2022-09-01T01:53:25;15.43;;;9.13;;
51467;SDS011;37545;45.302;-122.946;2022-09-01T01:55:55;13.48;;;8.88;;
51467;SDS011;37545;45.302;-122.946;2022-09-01T01:58:25;14.45;;;9.13;;
51467;SDS011;37545;45.302;-122.946;2022-09-01T02:00:55;14.45;;;9.20;;
51467;SDS011;37545;45.302;-122.946;2022-09-01T02:03:25;16.27;;;9.45;;
51467;SDS011;37545;45.302;-122.946;2022-09-01T02:06:00;17.98;;;8.80;;
51467;SDS011;37545;45.302;-122.946;2022-09-01T02:08:31;18.05;;;9.48;;
51467;SDS011;37545;45.302;-122.946;2022-09-01T02:11:02;13.65;;;9.07;;
51467;SDS011;37545;45.302;-122.946;2022-09-01T02:13:32;12.77;;;8.70;;
51467;SDS011;37545;45.302;-122.946;2022-09-01T02:16:02;14.85;;;9.25;;
51467;SDS011;37545;45.302;-122.946;2022-09-01T02:18:38;15.68;;;8.57;;
51467;SDS011;37545;45.302;-122.946;2022-09-01T02:21:09;13.13;;;8.27;;
51467;SDS011;37545;45.302;-122.946;2022-09-01T02:23:43;14.82;;;8.32;;
51467;SDS011;37545;45.302;-122.946;2022-09-01T02:26:16;15.70;;;8.15;;
51467;SDS011;37545;45.302;-122.946;2022-09-01T02:28:47;12.50;;;8.07;;
51467;SDS011;37545;45.302;-122.946;2022-09-01T02:31:15;14.43;;;6.63;;
51467;SDS011;37545;45.302;-122.946;2022-09-01T02:33:45;18.40;;;6.97;;
51467;SDS011;37545;45.302;-122.946;2022-09-01T02:36:14;11.55;;;6.75;;
51467;SDS011;37545;45.302;-122.946;2022-09-01T02:38:46;12.63;;;6.75;;
51467;SDS011;37545;45.302;-122.946;2022-09-01T02:41:17;14.38;;;6.28;;
51467;SDS011;37545;45.302;-122.946;2022-09-01T02:43:48;14.40;;;6.20;;
51467;SDS011;37545;45.302;-122.946;2022-09-01T02:46:17;11.68;;;6.18;;
51467;SDS011;37545;45.302;-122.946;2022-09-01T02:48:48;9.63;;;5.43;;
51467;SDS011;37545;45.302;-122.946;2022-09-01T02:51:18;9.82;;;5.05;;
51467;SDS011;37545;45.302;-122.946;2022-09-01T02:53:50;10.80;;;5.38;;
51467;SDS011;37545;45.302;-122.946;2022-09-01T02:56:23;13.57;;;5.72;;
51467;SDS011;37545;45.302;-122.946;2022-09-01T02:58:52;13.53;;;5.40;;
51467;SDS011;37545;45.302;-122.946;2022-09-01T03:01:22;13.38;;;5.65;;
51467;SDS011;37545;45.302;-122.946;2022-09-01T03:06:22;11.65;;;5.65;;
51467;SDS011;37545;45.302;-122.946;2022-09-01T03:08:53;10.65;;;5.28;;
51467;SDS011;37545;45.302;-122.946;2022-09-01T03:11:26;10.63;;;5.30;;
51467;SDS011;37545;45.302;-122.946;2022-09-01T03:13:56;6.93;;;4.97;;
51467;SDS011;37545;45.302;-122.946;2022-09-01T03:16:25;8.85;;;5.22;;
51467;SDS011;37545;45.302;-122.946;2022-09-01T03:18:54;10.18;;;5.38;;
51467;SDS011;37545;45.302;-122.946;2022-09-01T03:21:23;9.75;;;4.95;;
51467;SDS011;37545;45.302;-122.946;2022-09-01T03:23:52;8.15;;;5.20;;
51467;SDS011;37545;45.302;-122.946;2022-09-01T03:26:23;13.98;;;5.65;;
51467;SDS011;37545;45.302;-122.946;2022-09-01T03:28:53;8.32;;;5.05;;
51467;SDS011;37545;45.302;-122.946;2022-09-01T03:31:21;8.90;;;5.32;;
51467;SDS011;37545;45.302;-122.946;2022-09-01T03:33:52;14.80;;;5.55;;
51467;SDS011;37545;45.302;-122.946;2022-09-01T03:36:22;10.63;;;5.15;;
51467;SDS011;37545;45.302;-122.946;2022-09-01T03:38:52;9.02;;;4.93;;
51467;SDS011;37545;45.302;-122.946;2022-09-01T03:41:25;10.45;;;5.57;;
51467;SDS011;37545;45.302;-122.946;2022-09-01T03:43:56;7.20;;;5.35;;
51467;SDS011;37545;45.302;-122.946;2022-09-01T03:46:25;9.27;;;5.07;;
51467;SDS011;37545;45.302;-122.946;2022-09-01T03:48:56;9.40;;;5.67;;
51467;SDS011;37545;45.302;-122.946;2022-09-01T03:51:37;12.57;;;5.53;;
51467;SDS011;37545;45.302;-122.946;2022-09-01T03:54:07;10.98;;;5.70;;
51467;SDS011;37545;45.302;-122.946;2022-09-01T03:56:37;9.75;;;5.50;;
51467;SDS011;37545;45.302;-122.946;2022-09-01T03:59:06;7.38;;;4.95;;
51467;SDS011;37545;45.302;-122.946;2022-09-01T04:01:41;8.05;;;4.90;;
51467;SDS011;37545;45.302;-122.946;2022-09-01T04:04:10;8.57;;;5.03;;
51467;SDS011;37545;45.302;-122.946;2022-09-01T04:06:40;8.27;;;5.13;;
51467;SDS011;37545;45.302;-122.946;2022-09-01T04:09:09;12.43;;;5.70;;
51467;SDS011;37545;45.302;-122.946;2022-09-01T04:11:40;9.88;;;5.03;;
51467;SDS011;37545;45.302;-122.946;2022-09-01T04:14:10;8.75;;;4.38;;
51467;SDS011;37545;45.302;-122.946;2022-09-01T04:16:39;9.07;;;5.35;;
51467;SDS011;37545;45.302;-122.946;2022-09-01T04:19:26;6.72;;;5.20;;
51467;SDS011;37545;45.302;-122.946;2022-09-01T04:21:55;9.15;;;5.68;;
51467;SDS011;37545;45.302;-122.946;2022-09-01T04:24:26;8.68;;;5.47;;
51467;SDS011;37545;45.302;-122.946;2022-09-01T04:26:59;8.68;;;4.72;;
51467;SDS011;37545;45.302;-122.946;2022-09-01T04:29:29;8.27;;;4.72;;
51467;SDS011;37545;45.302;-122.946;2022-09-01T04:31:59;9.02;;;4.78;;
51467;SDS011;37545;45.302;-122.946;2022-09-01T04:34:30;6.80;;;4.60;;
51467;SDS011;37545;45.302;-122.946;2022-09-01T04:37:02;9.57;;;5.13;;
51467;SDS011;37545;45.302;-122.946;2022-09-01T04:39:34;7.88;;;5.20;;
51467;SDS011;37545;45.302;-122.946;2022-09-01T04:42:05;7.88;;;5.03;;
51467;SDS011;37545;45.302;-122.946;2022-09-01T04:44:35;7.87;;;5.23;;
51467;SDS011;37545;45.302;-122.946;2022-09-01T04:47:05;8.70;;;4.53;;
51467;SDS011;37545;45.302;-122.946;2022-09-01T04:49:36;8.20;;;4.95;;
51467;SDS011;37545;45.302;-122.946;2022-09-01T04:52:05;6.97;;;5.13;;
51467;SDS011;37545;45.302;-122.946;2022-09-01T04:54:33;8.98;;;4.97;;
51467;SDS011;37545;45.302;-122.946;2022-09-01T04:57:07;9.23;;;4.95;;
51467;SDS011;37545;45.302;-122.946;2022-09-01T04:59:35;7.15;;;4.45;;
51467;SDS011;37545;45.302;-122.946;2022-09-01T05:02:04;7.25;;;4.93;;
51467;SDS011;37545;45.302;-122.946;2022-09-01T05:04:34;6.95;;;4.68;;
51467;SDS011;37545;45.302;-122.946;2022-09-01T05:07:05;7.50;;;4.65;;
51467;SDS011;37545;45.302;-122.946;2022-09-01T05:09:35;8.45;;;4.72;;
51467;SDS011;37545;45.302;-122.946;2022-09-01T05:12:04;8.25;;;5.10;;
51467;SDS011;37545;45.302;-122.946;2022-09-01T05:14:38;7.38;;;4.50;;
51467;SDS011;37545;45.302;-122.946;2022-09-01T05:17:08;8.50;;;5.38;;
51467;SDS011;37545;45.302;-122.946;2022-09-01T05:19:38;7.35;;;4.50;;
51467;SDS011;37545;45.302;-122.946;2022-09-01T05:22:08;7.78;;;4.47;;
51467;SDS011;37545;45.302;-122.946;2022-09-01T05:24:37;7.07;;;4.80;;
51467;SDS011;37545;45.302;-122.946;2022-09-01T05:27:08;7.47;;;4.65;;
51467;SDS011;37545;45.302;-122.946;2022-09-01T05:29:36;7.88;;;4.75;;
51467;SDS011;37545;45.302;-122.946;2022-09-01T05:32:06;8.27;;;4.50;;
51467;SDS011;37545;45.302;-122.946;2022-09-01T05:34:35;7.43;;;5.00;;
51467;SDS011;37545;45.302;-122.946;2022-09-01T05:37:05;8.63;;;4.85;;
51467;SDS011;37545;45.302;-122.946;2022-09-01T05:39:37;9.25;;;4.38;;
51467;SDS011;37545;45.302;-122.946;2022-09-01T05:42:13;7.57;;;4.75;;
51467;SDS011;37545;45.302;-122.946;2022-09-01T05:44:42;10.25;;;4.50;;
51467;SDS011;37545;45.302;-122.946;2022-09-01T05:47:12;13.90;;;4.70;;
51467;SDS011;37545;45.302;-122.946;2022-09-01T05:49:41;7.72;;;4.68;;
51467;SDS011;37545;45.302;-122.946;2022-09-01T05:52:09;7.50;;;4.55;;
51467;SDS011;37545;45.302;-122.946;2022-09-01T05:54:38;8.23;;;5.10;;
51467;SDS011;37545;45.302;-122.946;2022-09-01T05:57:06;9.88;;;4.90;;
51467;SDS011;37545;45.302;-122.946;2022-09-01T05:59:37;9.52;;;4.47;;
51467;SDS011;37545;45.302;-122.946;2022-09-01T06:02:06;9.70;;;4.53;;
51467;SDS011;37545;45.302;-122.946;2022-09-01T06:04:36;10.52;;;4.60;;
51467;SDS011;37545;45.302;-122.946;2022-09-01T06:07:10;13.43;;;5.18;;
51467;SDS011;37545;45.302;-122.946;2022-09-01T06:09:39;8.25;;;5.47;;
51467;SDS011;37545;45.302;-122.946;2022-09-01T06:12:10;8.98;;;4.93;;
51467;SDS011;37545;45.302;-122.946;2022-09-01T06:14:46;6.45;;;4.57;;
51467;SDS011;37545;45.302;-122.946;2022-09-01T06:17:16;9.40;;;4.80;;
51467;SDS011;37545;45.302;-122.946;2022-09-01T06:19:49;8.23;;;4.82;;
51467;SDS011;37545;45.302;-122.946;2022-09-01T06:22:20;9.48;;;4.95;;
51467;SDS011;37545;45.302;-122.946;2022-09-01T06:24:49;12.68;;;4.65;;
51467;SDS011;37545;45.302;-122.946;2022-09-01T06:27:19;6.45;;;4.50;;
51467;SDS011;37545;45.302;-122.946;2022-09-01T06:29:49;6.63;;;4.35;;
51467;SDS011;37545;45.302;-122.946;2022-09-01T06:32:20;6.13;;;4.30;;
51467;SDS011;37545;45.302;-122.946;2022-09-01T06:34:52;7.57;;;4.30;;
51467;SDS011;37545;45.302;-122.946;2022-09-01T06:39:50;6.53;;;4.43;;
51467;SDS011;37545;45.302;-122.946;2022-09-01T06:42:18;7.60;;;4.75;;
51467;SDS011;37545;45.302;-122.946;2022-09-01T06:44:49;10.10;;;4.53;;
51467;SDS011;37545;45.302;-122.946;2022-09-01T06:47:18;8.95;;;4.57;;
51467;SDS011;37545;45.302;-122.946;2022-09-01T06:49:47;9.88;;;5.40;;
51467;SDS011;37545;45.302;-122.946;2022-09-01T06:52:18;7.15;;;4.35;;
51467;SDS011;37545;45.302;-122.946;2022-09-01T06:54:48;9.45;;;4.65;;
51467;SDS011;37545;45.302;-122.946;2022-09-01T06:57:17;6.63;;;4.80;;
51467;SDS011;37545;45.302;-122.946;2022-09-01T06:59:47;10.25;;;4.97;;
51467;SDS011;37545;45.302;-122.946;2022-09-01T07:02:18;11.13;;;5.00;;
51467;SDS011;37545;45.302;-122.946;2022-09-01T07:04:47;6.72;;;4.50;;
51467;SDS011;37545;45.302;-122.946;2022-09-01T07:07:16;8.73;;;4.65;;
51467;SDS011;37545;45.302;-122.946;2022-09-01T07:09:45;7.20;;;4.85;;
51467;SDS011;37545;45.302;-122.946;2022-09-01T07:12:14;6.63;;;4.50;;
51467;SDS011;37545;45.302;-122.946;2022-09-01T07:14:45;6.80;;;4.63;;
51467;SDS011;37545;45.302;-122.946;2022-09-01T07:17:15;7.30;;;4.57;;
51467;SDS011;37545;45.302;-122.946;2022-09-01T07:19:46;9.45;;;5.05;;
51467;SDS011;37545;45.302;-122.946;2022-09-01T07:22:14;6.80;;;4.43;;
51467;SDS011;37545;45.302;-122.946;2022-09-01T07:24:43;7.43;;;4.68;;
51467;SDS011;37545;45.302;-122.946;2022-09-01T07:27:12;6.60;;;4.57;;
51467;SDS011;37545;45.302;-122.946;2022-09-01T07:29:40;8.52;;;4.90;;
51467;SDS011;37545;45.302;-122.946;2022-09-01T07:32:09;6.70;;;4.05;;
51467;SDS011;37545;45.302;-122.946;2022-09-01T07:34:40;8.85;;;4.72;;
51467;SDS011;37545;45.302;-122.946;2022-09-01T07:37:10;7.53;;;4.95;;
51467;SDS011;37545;45.302;-122.946;2022-09-01T07:39:39;7.13;;;4.75;;
51467;SDS011;37545;45.302;-122.946;2022-09-01T07:42:09;9.38;;;5.05;;
51467;SDS011;37545;45.302;-122.946;2022-09-01T07:44:42;7.00;;;4.60;;
51467;SDS011;37545;45.302;-122.946;2022-09-01T07:47:11;7.15;;;4.63;;
51467;SDS011;37545;45.302;-122.946;2022-09-01T07:49:43;7.05;;;4.20;;
51467;SDS011;37545;45.302;-122.946;2022-09-01T07:52:12;8.85;;;4.35;;
51467;SDS011;37545;45.302;-122.946;2022-09-01T07:54:40;6.63;;;3.97;;
51467;SDS011;37545;45.302;-122.946;2022-09-01T07:57:10;6.97;;;4.50;;
51467;SDS011;37545;45.302;-122.946;2022-09-01T07:59:39;5.00;;;3.75;;
51467;SDS011;37545;45.302;-122.946;2022-09-01T08:02:08;6.53;;;4.38;;
51467;SDS011;37545;45.302;-122.946;2022-09-01T08:04:36;8.35;;;4.57;;
51467;SDS011;37545;45.302;-122.946;2022-09-01T08:07:08;6.60;;;4.20;;
51467;SDS011;37545;45.302;-122.946;2022-09-01T08:09:37;7.40;;;3.83;;
51467;SDS011;37545;45.302;-122.946;2022-09-01T08:12:05;6.63;;;4.45;;
51467;SDS011;37545;45.302;-122.946;2022-09-01T08:14:34;7.97;;;4.63;;
51467;SDS011;37545;45.302;-122.946;2022-09-01T08:17:03;8.15;;;4.20;;
51467;SDS011;37545;45.302;-122.946;2022-09-01T08:19:31;6.75;;;4.57;;
51467;SDS011;37545;45.302;-122.946;2022-09-01T08:22:00;7.53;;;4.10;;
51467;SDS011;37545;45.302;-122.946;2022-09-01T08:24:30;9.20;;;4.15;;
51467;SDS011;37545;45.302;-122.946;2022-09-01T08:26:59;6.45;;;4.28;;
51467;SDS011;37545;45.302;-122.946;2022-09-01T08:29:32;7.75;;;4.32;;
51467;SDS011;37545;45.302;-122.946;2022-09-01T08:32:00;8.95;;;4.45;;
51467;SDS011;37545;45.302;-122.946;2022-09-01T08:34:31;6.75;;;4.13;;
51467;SDS011;37545;45.302;-122.946;2022-09-01T08:39:31;7.60;;;4.55;;
51467;SDS011;37545;45.302;-122.946;2022-09-01T08:42:01;10.40;;;4.70;;
51467;SDS011;37545;45.302;-122.946;2022-09-01T08:44:40;5.90;;;4.35;;
51467;SDS011;37545;45.302;-122.946;2022-09-01T08:47:15;9.25;;;4.43;;
51467;SDS011;37545;45.302;-122.946;2022-09-01T08:49:45;8.50;;;4.35;;
51467;SDS011;37545;45.302;-122.946;2022-09-01T08:52:18;7.40;;;4.45;;
51467;SDS011;37545;45.302;-122.946;2022-09-01T08:54:55;7.93;;;3.90;;
51467;SDS011;37545;45.302;-122.946;2022-09-01T08:57:31;8.90;;;4.78;;
51467;SDS011;37545;45.302;-122.946;2022-09-01T09:00:01;10.63;;;4.65;;
51467;SDS011;37545;45.302;-122.946;2022-09-01T09:02:35;8.55;;;3.97;;
51467;SDS011;37545;45.302;-122.946;2022-09-01T09:05:22;7.38;;;4.10;;
51467;SDS011;37545;45.302;-122.946;2022-09-01T09:08:01;6.80;;;3.97;;
51467;SDS011;37545;45.302;-122.946;2022-09-01T09:11:02;5.85;;;4.47;;
51467;SDS011;37545;45.302;-122.946;2022-09-01T09:13:37;6.50;;;4.47;;
51467;SDS011;37545;45.302;-122.946;2022-09-01T09:16:14;6.95;;;3.55;;
51467;SDS011;37545;45.302;-122.946;2022-09-01T09:21:16;8.23;;;4.35;;
51467;SDS011;37545;45.302;-122.946;2022-09-01T09:23:49;6.18;;;3.70;;
51467;SDS011;37545;45.302;-122.946;2022-09-01T09:26:27;5.60;;;3.05;;
51467;SDS011;37545;45.302;-122.946;2022-09-01T09:28:57;7.65;;;4.10;;
51467;SDS011;37545;45.302;-122.946;2022-09-01T09:31:30;6.90;;;4.03;;
51467;SDS011;37545;45.302;-122.946;2022-09-01T09:33:59;5.95;;;3.58;;
51467;SDS011;37545;45.302;-122.946;2022-09-01T09:36:31;5.78;;;3.88;;
51467;SDS011;37545;45.302;-122.946;2022-09-01T09:39:04;6.68;;;4.03;;
51467;SDS011;37545;45.302;-122.946;2022-09-01T09:41:37;7.65;;;4.45;;
51467;SDS011;37545;45.302;-122.946;2022-09-01T09:44:15;5.75;;;3.83;;
51467;SDS011;37545;45.302;-122.946;2022-09-01T09:46:48;6.15;;;3.72;;
51467;SDS011;37545;45.302;-122.946;2022-09-01T09:49:18;6.18;;;4.00;;
51467;SDS011;37545;45.302;-122.946;2022-09-01T09:51:49;5.47;;;3.83;;
51467;SDS011;37545;45.302;-122.946;2022-09-01T09:54:21;8.23;;;4.40;;
51467;SDS011;37545;45.302;-122.946;2022-09-01T09:57:03;7.03;;;3.40;;
51467;SDS011;37545;45.302;-122.946;2022-09-01T09:59:38;5.50;;;3.28;;
51467;SDS011;37545;45.302;-122.946;2022-09-01T10:02:23;8.43;;;4.80;;
51467;SDS011;37545;45.302;-122.946;2022-09-01T10:04:57;6.38;;;3.78;;
51467;SDS011;37545;45.302;-122.946;2022-09-01T10:07:29;6.95;;;3.47;;
51467;SDS011;37545;45.302;-122.946;2022-09-01T10:10:00;11.20;;;4.25;;
51467;SDS011;37545;45.302;-122.946;2022-09-01T10:12:33;6.43;;;3.42;;
51467;SDS011;37545;45.302;-122.946;2022-09-01T10:15:03;4.90;;;3.40;;
51467;SDS011;37545;45.302;-122.946;2022-09-01T10:17:35;7.45;;;4.43;;
51467;SDS011;37545;45.302;-122.946;2022-09-01T10:20:07;6.43;;;4.32;;
51467;SDS011;37545;45.302;-122.946;2022-09-01T10:22:39;5.43;;;3.70;;
51467;SDS011;37545;45.302;-122.946;2022-09-01T10:25:08;5.40;;;3.75;;
51467;SDS011;37545;45.302;-122.946;2022-09-01T10:27:57;9.38;;;3.97;;
51467;SDS011;37545;45.302;-122.946;2022-09-01T10:30:30;5.07;;;3.40;;
51467;SDS011;37545;45.302;-122.946;2022-09-01T10:32:59;7.32;;;4.35;;
51467;SDS011;37545;45.302;-122.946;2022-09-01T10:35:29;6.70;;;4.47;;
51467;SDS011;37545;45.302;-122.946;2022-09-01T10:38:02;7.10;;;4.43;;
51467;SDS011;37545;45.302;-122.946;2022-09-01T10:40:34;6.82;;;3.53;;
51467;SDS011;37545;45.302;-122.946;2022-09-01T10:46:17;5.28;;;3.75;;
51467;SDS011;37545;45.302;-122.946;2022-09-01T10:49:17;5.63;;;3.85;;
51467;SDS011;37545;45.302;-122.946;2022-09-01T10:51:50;6.03;;;3.55;;
51467;SDS011;37545;45.302;-122.946;2022-09-01T11:06:33;7.05;;;4.35;;
51467;SDS011;37545;45.302;-122.946;2022-09-01T11:09:18;6.03;;;3.13;;
51467;SDS011;37545;45.302;-122.946;2022-09-01T11:14:48;7.30;;;3.55;;
51467;SDS011;37545;45.302;-122.946;2022-09-01T11:17:20;7.63;;;4.55;;
51467;SDS011;37545;45.302;-122.946;2022-09-01T11:22:37;6.75;;;4.22;;
51467;SDS011;37545;45.302;-122.946;2022-09-01T11:31:13;6.28;;;3.83;;
51467;SDS011;37545;45.302;-122.946;2022-09-01T11:33:54;8.02;;;4.22;;
51467;SDS011;37545;45.302;-122.946;2022-09-01T11:36:45;6.95;;;3.90;;
51467;SDS011;37545;45.302;-122.946;2022-09-01T11:39:34;7.90;;;3.75;;
51467;SDS011;37545;45.302;-122.946;2022-09-01T11:42:08;5.93;;;3.45;;
51467;SDS011;37545;45.302;-122.946;2022-09-01T11:44:45;6.75;;;4.13;;
51467;SDS011;37545;45.302;-122.946;2022-09-01T11:47:18;7.28;;;4.00;;
51467;SDS011;37545;45.302;-122.946;2022-09-01T11:49:54;9.52;;;3.58;;
51467;SDS011;37545;45.302;-122.946;2022-09-01T11:52:25;7.43;;;3.83;;
51467;SDS011;37545;45.302;-122.946;2022-09-01T11:54:55;8.70;;;4.13;;
51467;SDS011;37545;45.302;-122.946;2022-09-01T11:57:26;7.18;;;4.03;;
51467;SDS011;37545;45.302;-122.946;2022-09-01T11:59:57;10.02;;;3.15;;
51467;SDS011;37545;45.302;-122.946;2022-09-01T12:02:28;6.88;;;3.80;;
51467;SDS011;37545;45.302;-122.946;2022-09-01T12:05:00;6.63;;;4.20;;
51467;SDS011;37545;45.302;-122.946;2022-09-01T12:07:38;5.88;;;3.40;;
51467;SDS011;37545;45.302;-122.946;2022-09-01T12:10:13;5.93;;;3.63;;
51467;SDS011;37545;45.302;-122.946;2022-09-01T12:12:45;7.90;;;3.65;;
51467;SDS011;37545;45.302;-122.946;2022-09-01T12:15:19;8.57;;;3.80;;
51467;SDS011;37545;45.302;-122.946;2022-09-01T12:17:49;6.97;;;4.20;;
51467;SDS011;37545;45.302;-122.946;2022-09-01T12:20:24;6.07;;;3.53;;
51467;SDS011;37545;45.302;-122.946;2022-09-01T12:22:55;6.43;;;3.58;;
51467;SDS011;37545;45.302;-122.946;2022-09-01T12:25:25;6.57;;;3.50;;
51467;SDS011;37545;45.302;-122.946;2022-09-01T12:27:55;6.75;;;3.75;;
51467;SDS011;37545;45.302;-122.946;2022-09-01T12:30:26;8.90;;;4.22;;
51467;SDS011;37545;45.302;-122.946;2022-09-01T12:32:55;8.48;;;3.55;;
51467;SDS011;37545;45.302;-122.946;2022-09-01T12:35:27;5.60;;;3.25;;
51467;SDS011;37545;45.302;-122.946;2022-09-01T12:40:56;7.30;;;4.20;;
51467;SDS011;37545;45.302;-122.946;2022-09-01T12:43:33;8.15;;;3.30;;
51467;SDS011;37545;45.302;-122.946;2022-09-01T12:46:04;5.53;;;3.53;;
51467;SDS011;37545;45.302;-122.946;2022-09-01T12:48:35;6.40;;;3.50;;
51467;SDS011;37545;45.302;-122.946;2022-09-01T12:51:14;5.88;;;3.75;;
51467;SDS011;37545;45.302;-122.946;2022-09-01T12:53:50;10.80;;;3.65;;
51467;SDS011;37545;45.302;-122.946;2022-09-01T12:56:25;7.03;;;3.38;;
51467;SDS011;37545;45.302;-122.946;2022-09-01T12:59:04;8.60;;;3.55;;
51467;SDS011;37545;45.302;-122.946;2022-09-01T13:01:35;8.50;;;3.70;;
51467;SDS011;37545;45.302;-122.946;2022-09-01T13:04:24;8.23;;;3.80;;
51467;SDS011;37545;45.302;-122.946;2022-09-01T13:07:02;7.00;;;3.25;;
51467;SDS011;37545;45.302;-122.946;2022-09-01T13:09:32;5.07;;;3.03;;
51467;SDS011;37545;45.302;-122.946;2022-09-01T13:12:10;6.88;;;3.30;;
51467;SDS011;37545;45.302;-122.946;2022-09-01T13:14:43;5.75;;;3.65;;
51467;SDS011;37545;45.302;-122.946;2022-09-01T13:17:12;7.07;;;3.65;;
51467;SDS011;37545;45.302;-122.946;2022-09-01T13:19:40;5.40;;;3.42;;
51467;SDS011;37545;45.302;-122.946;2022-09-01T13:22:11;6.57;;;3.55;;
51467;SDS011;37545;45.302;-122.946;2022-09-01T13:24:39;9.25;;;3.72;;
51467;SDS011;37545;45.302;-122.946;2022-09-01T13:27:08;5.45;;;2.75;;
51467;SDS011;37545;45.302;-122.946;2022-09-01T13:29:37;6.28;;;4.03;;
51467;SDS011;37545;45.302;-122.946;2022-09-01T13:32:06;8.85;;;3.55;;
51467;SDS011;37545;45.302;-122.946;2022-09-01T13:34:34;6.82;;;3.70;;
51467;SDS011;37545;45.302;-122.946;2022-09-01T13:37:04;6.22;;;3.50;;
51467;SDS011;37545;45.302;-122.946;2022-09-01T13:39:34;6.28;;;3.55;;
51467;SDS011;37545;45.302;-122.946;2022-09-01T13:42:03;8.80;;;3.55;;
51467;SDS011;37545;45.302;-122.946;2022-09-01T13:44:32;5.75;;;3.55;;
51467;SDS011;37545;45.302;-122.946;2022-09-01T13:47:00;5.53;;;3.28;;
51467;SDS011;37545;45.302;-122.946;2022-09-01T13:49:29;8.18;;;3.45;;
51467;SDS011;37545;45.302;-122.946;2022-09-01T13:51:58;8.18;;;3.53;;
51467;SDS011;37545;45.302;-122.946;2022-09-01T13:54:27;7.63;;;3.72;;
51467;SDS011;37545;45.302;-122.946;2022-09-01T13:56:57;6.65;;;3.67;;
51467;SDS011;37545;45.302;-122.946;2022-09-01T13:59:26;6.55;;;3.90;;
51467;SDS011;37545;45.302;-122.946;2022-09-01T14:01:54;9.77;;;3.30;;
51467;SDS011;37545;45.302;-122.946;2022-09-01T14:04:23;7.65;;;3.92;;
51467;SDS011;37545;45.302;-122.946;2022-09-01T14:06:51;7.60;;;4.03;;
51467;SDS011;37545;45.302;-122.946;2022-09-01T14:09:20;7.28;;;3.40;;
51467;SDS011;37545;45.302;-122.946;2022-09-01T14:11:51;7.35;;;3.83;;
51467;SDS011;37545;45.302;-122.946;2022-09-01T14:14:21;6.43;;;3.58;;
51467;SDS011;37545;45.302;-122.946;2022-09-01T14:16:50;7.72;;;3.53;;
51467;SDS011;37545;45.302;-122.946;2022-09-01T14:19:19;6.20;;;3.47;;
51467;SDS011;37545;45.302;-122.946;2022-09-01T14:21:49;5.30;;;3.30;;
51467;SDS011;37545;45.302;-122.946;2022-09-01T14:24:17;8.50;;;3.75;;
51467;SDS011;37545;45.302;-122.946;2022-09-01T14:26:46;8.35;;;3.92;;
51467;SDS011;37545;45.302;-122.946;2022-09-01T14:29:23;7.40;;;4.13;;
51467;SDS011;37545;45.302;-122.946;2022-09-01T14:31:52;8.05;;;3.75;;
51467;SDS011;37545;45.302;-122.946;2022-09-01T14:34:21;6.53;;;3.92;;
51467;SDS011;37545;45.302;-122.946;2022-09-01T14:36:50;7.18;;;4.45;;
51467;SDS011;37545;45.302;-122.946;2022-09-01T14:39:22;8.37;;;4.20;;
51467;SDS011;37545;45.302;-122.946;2022-09-01T14:41:51;9.73;;;5.25;;
51467;SDS011;37545;45.302;-122.946;2022-09-01T14:44:21;7.22;;;3.33;;
51467;SDS011;37545;45.302;-122.946;2022-09-01T14:46:51;8.77;;;4.32;;
51467;SDS011;37545;45.302;-122.946;2022-09-01T14:49:19;9.43;;;4.00;;
51467;SDS011;37545;45.302;-122.946;2022-09-01T14:51:48;10.15;;;4.43;;
51467;SDS011;37545;45.302;-122.946;2022-09-01T14:54:16;7.95;;;4.47;;
51467;SDS011;37545;45.302;-122.946;2022-09-01T14:56:45;8.48;;;4.47;;
51467;SDS011;37545;45.302;-122.946;2022-09-01T14:59:14;10.07;;;5.03;;
51467;SDS011;37545;45.302;-122.946;2022-09-01T15:01:46;7.30;;;4.43;;
51467;SDS011;37545;45.302;-122.946;2022-09-01T15:04:15;8.57;;;4.45;;
51467;SDS011;37545;45.302;-122.946;2022-09-01T15:06:43;8.45;;;4.50;;